Time;durP1;ratioP1;P1;durP2;ratioP2;P2;SDS_P1;SDS_P2;PMS_P1;PMS_P2;Temp;Humidity;BMP_temperature;BMP_pressure;BME280_temperature;BME280_humidity;BME280_pressure;Samples;Min_cycle;Max_cycle;Signal;HPM_P1;HPM_P2
2023/06/02 00:02:07;;;;;;;4.00;3.60;;;;;;;13.03;59.30;99542.19;218649;1256;141441;-69
2023/06/02 00:07:11;;;;;;;4.60;2.80;;;;;;;12.99;59.44;99539.01;218650;1257;140786;-69
2023/06/02 00:12:14;;;;;;;6.80;4.30;;;;;;;12.97;59.95;99542.41;220759;1256;139699;-76
2023/06/02 00:17:19;;;;;;;6.00;4.90;;;;;;;13.01;60.30;99540.73;218891;1257;139495;-68
2023/06/02 00:22:22;;;;;;;5.20;3.90;;;;;;;13.06;60.64;99543.57;218225;1257;139396;-70
2023/06/02 00:27:25;;;;;;;9.80;5.30;;;;;;;13.12;61.01;99544.10;219054;1256;141251;-75
2023/06/02 00:32:28;;;;;;;11.40;4.70;;;;;;;13.21;60.78;99544.39;218107;1257;139368;-71
2023/06/02 00:37:31;;;;;;;9.10;5.00;;;;;;;13.23;61.03;99540.13;219155;1256;140437;-73
2023/06/02 00:42:34;;;;;;;9.30;4.20;;;;;;;13.24;61.00;99538.52;218246;1257;140209;-69
2023/06/02 00:47:38;;;;;;;10.00;5.10;;;;;;;13.22;60.89;99547.77;217942;1257;139280;-71
2023/06/02 00:52:41;;;;;;;8.00;4.10;;;;;;;13.16;61.20;99553.66;218712;1257;141009;-71
2023/06/02 00:57:45;;;;;;;10.50;5.50;;;;;;;13.11;61.55;99552.71;217926;1257;139682;-77
2023/06/02 01:02:49;;;;;;;16.10;6.30;;;;;;;13.10;61.66;99551.63;218688;1256;139789;-80
2023/06/02 01:07:59;;;;;;;7.20;4.20;;;;;;;13.06;61.67;99551.22;218271;1257;139961;-78
2023/06/02 01:13:03;;;;;;;6.60;3.90;;;;;;;13.01;61.92;99545.70;217980;1257;139641;-79
2023/06/02 01:18:12;;;;;;;6.90;4.50;;;;;;;12.99;62.19;99551.52;218925;1257;140044;-73
2023/06/02 01:23:33;;;;;;;12.00;5.10;;;;;;;12.94;62.26;99552.28;217631;1259;140493;-76
2023/06/02 01:28:37;;;;;;;7.40;4.40;;;;;;;12.79;62.35;99545.30;218218;1259;141279;-72
2023/06/02 01:33:51;;;;;;;7.70;4.30;;;;;;;12.68;62.72;99551.19;218249;1257;140284;-73
2023/06/02 01:38:57;;;;;;;9.40;4.70;;;;;;;12.58;62.87;99551.98;218775;1256;140094;-73
2023/06/02 01:44:02;;;;;;;4.90;4.40;;;;;;;12.48;62.92;99553.45;218597;1257;139018;-75
2023/06/02 01:49:16;;;;;;;4.20;3.40;;;;;;;12.39;63.04;99551.64;219665;1255;139999;-78
2023/06/02 01:54:19;;;;;;;9.60;4.60;;;;;;;12.22;62.88;99551.08;218150;1259;140484;-78
2023/06/02 01:59:23;;;;;;;8.10;5.00;;;;;;;12.09;63.13;99547.66;219348;1256;139384;-71
2023/06/02 02:04:26;;;;;;;6.40;4.70;;;;;;;11.95;63.17;99547.33;218554;1257;140166;-73
2023/06/02 02:09:30;;;;;;;22.20;6.50;;;;;;;11.79;63.62;99547.32;218211;1257;139689;-72
2023/06/02 02:14:33;;;;;;;15.70;5.10;;;;;;;11.69;63.99;99551.48;218660;1256;140319;-79
2023/06/02 02:19:37;;;;;;;5.00;4.50;;;;;;;11.59;64.17;99551.48;218340;1256;139912;-74
2023/06/02 02:24:40;;;;;;;7.30;4.90;;;;;;;11.46;64.38;99558.55;218190;1257;139485;-77
2023/06/02 02:29:45;;;;;;;6.70;5.50;;;;;;;11.38;64.78;99561.13;218814;1259;140799;-77
2023/06/02 02:34:50;;;;;;;6.80;4.60;;;;;;;11.22;64.96;99558.92;218297;1257;139943;-77
2023/06/02 02:39:52;;;;;;;4.90;4.50;;;;;;;11.14;65.32;99555.58;217997;1257;140352;-76
2023/06/02 02:44:56;;;;;;;5.10;4.60;;;;;;;11.06;65.36;99558.07;218981;1257;140765;-73
2023/06/02 02:49:59;;;;;;;7.60;5.50;;;;;;;10.93;65.47;99552.00;218861;1259;139991;-76
2023/06/02 02:55:03;;;;;;;10.90;5.20;;;;;;;10.87;65.84;99551.41;218087;1257;139263;-75
2023/06/02 03:00:09;;;;;;;6.20;5.70;;;;;;;10.87;66.30;99555.52;218250;1257;141048;-74
2023/06/02 03:05:13;;;;;;;6.60;4.90;;;;;;;10.82;66.44;99553.19;218178;1258;139570;-75
2023/06/02 03:10:17;;;;;;;9.50;5.50;;;;;;;10.76;66.58;99555.58;218265;1255;139381;-74
2023/06/02 03:15:20;;;;;;;11.70;5.70;;;;;;;10.76;66.96;99560.98;218053;1259;139349;-77
2023/06/02 03:20:25;;;;;;;11.00;6.00;;;;;;;10.82;67.01;99561.02;218304;1256;140378;-75
2023/06/02 03:25:29;;;;;;;13.50;5.60;;;;;;;10.84;67.37;99565.77;218595;1259;139423;-75
2023/06/02 03:30:33;;;;;;;8.10;5.10;;;;;;;10.94;67.55;99565.03;218390;1259;139644;-74
2023/06/02 03:35:36;;;;;;;9.40;6.00;;;;;;;10.95;67.46;99561.91;218046;1257;139469;-75
2023/06/02 03:40:39;;;;;;;10.80;6.60;;;;;;;11.09;67.75;99573.75;218013;1257;139478;-75
2023/06/02 03:45:43;;;;;;;7.30;5.70;;;;;;;11.31;67.72;99569.52;218329;1256;139636;-76
2023/06/02 03:50:46;;;;;;;10.10;6.70;;;;;;;11.39;67.79;99578.02;217929;1259;139893;-75
2023/06/02 03:55:50;;;;;;;13.20;7.30;;;;;;;11.48;67.61;99584.72;220605;1257;141769;-77
2023/06/02 04:00:54;;;;;;;10.40;6.00;;;;;;;11.56;67.75;99591.63;219573;1257;140929;-78
2023/06/02 04:05:59;;;;;;;10.50;5.10;;;;;;;11.59;67.85;99594.84;219804;1257;141105;-77
2023/06/02 04:11:04;;;;;;;6.30;5.30;;;;;;;11.71;68.02;99600.50;218923;1257;141768;-76
2023/06/02 04:16:07;;;;;;;11.30;5.20;;;;;;;11.90;68.30;99600.58;219397;1256;139812;-77
2023/06/02 04:21:09;;;;;;;9.70;6.10;;;;;;;11.99;68.08;99602.66;218651;1256;140103;-78
2023/06/02 04:26:12;;;;;;;11.40;5.90;;;;;;;12.08;68.36;99605.99;219246;1255;141922;-77
2023/06/02 04:31:26;;;;;;;12.00;6.50;;;;;;;12.22;68.39;99609.59;218189;1257;140201;-75
2023/06/02 04:36:31;;;;;;;10.70;7.10;;;;;;;12.35;68.25;99609.42;218199;1257;138923;-76
2023/06/02 04:41:36;;;;;;;7.80;4.50;;;;;;;12.46;68.21;99612.61;218459;1259;139540;-75
2023/06/02 04:46:42;;;;;;;8.30;5.60;;;;;;;12.63;68.31;99615.15;218120;1257;139771;-76
2023/06/02 04:51:45;;;;;;;5.60;5.20;;;;;;;12.77;68.16;99614.79;218399;1257;140507;-76
2023/06/02 04:56:49;;;;;;;9.50;4.80;;;;;;;12.98;68.04;99617.45;217834;1259;139358;-76
2023/06/02 05:01:52;;;;;;;11.40;7.40;;;;;;;13.17;67.76;99614.16;218468;1256;140140;-76
2023/06/02 05:06:59;;;;;;;11.30;5.20;;;;;;;13.61;67.76;99618.80;217920;1259;139856;-75
2023/06/02 05:12:02;;;;;;;7.00;4.20;;;;;;;14.04;67.16;99624.27;218394;1259;140036;-76
2023/06/02 05:17:05;;;;;;;8.20;4.70;;;;;;;14.29;66.67;99624.07;217901;1256;140566;-73
2023/06/02 05:22:07;;;;;;;14.20;6.80;;;;;;;14.47;66.37;99622.34;218441;1259;139715;-77
2023/06/02 05:27:10;;;;;;;9.70;5.60;;;;;;;14.51;65.97;99624.88;218043;1257;139608;-76
2023/06/02 05:32:12;;;;;;;10.60;6.60;;;;;;;14.42;65.67;99630.98;219393;1257;139976;-77
2023/06/02 05:37:16;;;;;;;8.60;5.40;;;;;;;14.38;65.55;99635.91;218804;1257;139806;-76
2023/06/02 05:42:19;;;;;;;7.60;5.60;;;;;;;14.28;65.33;99646.00;218519;1259;139072;-77
2023/06/02 05:47:26;;;;;;;10.50;5.70;;;;;;;14.23;65.27;99646.19;218468;1258;140169;-76
2023/06/02 05:52:30;;;;;;;6.70;5.40;;;;;;;14.33;65.53;99646.95;218558;1257;139686;-75
2023/06/02 05:57:37;;;;;;;10.10;6.30;;;;;;;14.42;65.45;99650.42;218347;1257;139744;-76
2023/06/02 06:02:41;;;;;;;9.60;4.70;;;;;;;14.38;65.38;99657.42;220349;1257;139937;-76
2023/06/02 06:07:45;;;;;;;8.10;6.10;;;;;;;14.35;65.26;99660.79;218873;1257;139835;-75
2023/06/02 06:12:49;;;;;;;5.40;4.10;;;;;;;14.37;65.09;99657.67;218652;1258;140030;-77
2023/06/02 06:17:53;;;;;;;9.20;6.40;;;;;;;14.31;64.93;99658.89;218041;1260;139863;-79
2023/06/02 06:22:57;;;;;;;19.40;7.00;;;;;;;14.23;65.31;99662.59;218284;1257;140066;-75
2023/06/02 06:28:01;;;;;;;9.60;7.60;;;;;;;14.19;65.33;99666.80;218147;1260;150705;-75
2023/06/02 15:27:40;;;;;;;6.70;1.20;;;;;;;18.09;43.07;99987.75;213152;1303;656518;-80
2023/06/02 15:32:45;;;;;;;1.00;0.60;;;;;;;17.74;42.28;99985.91;217107;1271;139190;-81
2023/06/02 15:37:49;;;;;;;1.20;1.00;;;;;;;17.51;41.97;99980.09;217371;1271;231810;-80
2023/06/02 15:42:56;;;;;;;1.10;0.60;;;;;;;17.40;41.84;99979.11;215966;1270;138725;-83
2023/06/02 15:48:05;;;;;;;1.40;0.90;;;;;;;17.38;41.83;99982.71;217362;1270;138310;-80
2023/06/02 15:53:10;;;;;;;2.10;1.00;;;;;;;17.27;42.01;99991.90;217581;1270;139508;-71
2023/06/02 15:58:14;;;;;;;1.80;1.30;;;;;;;17.08;41.60;99995.42;217064;1270;138788;-81
2023/06/02 16:03:24;;;;;;;0.80;0.80;;;;;;;16.94;41.47;99998.66;216435;1271;138936;-76
2023/06/02 16:08:30;;;;;;;1.60;1.00;;;;;;;16.74;41.09;100002.17;217398;1270;138286;-80
2023/06/02 16:13:34;;;;;;;3.60;0.70;;;;;;;16.84;41.14;99996.73;218558;1270;138441;-71
2023/06/02 16:18:38;;;;;;;1.20;1.00;;;;;;;16.92;40.87;100000.39;216751;1273;138522;-74
2023/06/02 16:23:44;;;;;;;5.70;1.00;;;;;;;17.02;40.76;100006.41;218639;1270;139317;-76
2023/06/02 16:28:51;;;;;;;0.60;0.50;;;;;;;17.08;40.06;100007.55;217208;1271;139501;-76
2023/06/02 16:33:57;;;;;;;2.80;0.90;;;;;;;17.04;39.49;100016.60;216918;1270;139410;-76
2023/06/02 16:39:04;;;;;;;0.40;0.40;;;;;;;16.99;39.43;100023.39;215989;1273;138950;-70
2023/06/02 16:44:10;;;;;;;1.60;0.70;;;;;;;16.94;39.23;100029.05;217054;1268;138739;-69
2023/06/02 16:49:15;;;;;;;1.80;0.60;;;;;;;16.88;38.62;100039.00;217564;1269;205588;-76
2023/06/02 16:54:20;;;;;;;0.40;0.40;;;;;;;16.75;37.99;100039.33;216837;1270;139274;-75
2023/06/02 16:59:27;;;;;;;5.00;1.30;;;;;;;16.62;37.84;100043.10;216105;1273;140258;-74
2023/06/02 17:04:35;;;;;;;3.50;1.00;;;;;;;16.53;37.98;100050.50;217926;1261;138740;-76
2023/06/02 17:09:40;;;;;;;3.30;1.00;;;;;;;16.40;38.21;100058.50;217802;1258;139951;-80
2023/06/02 17:14:44;;;;;;;3.40;0.70;;;;;;;16.28;38.37;100068.58;218951;1259;139473;-83
2023/06/02 17:19:50;;;;;;;2.80;0.70;;;;;;;16.12;38.58;100070.67;217028;1261;139003;-69
2023/06/02 17:24:55;;;;;;;3.20;0.90;;;;;;;15.94;38.67;100072.67;218149;1259;139918;-79
2023/06/02 17:30:00;;;;;;;3.20;0.60;;;;;;;15.81;38.79;100086.38;217745;1261;138938;-73
2023/06/02 17:35:05;;;;;;;2.90;1.10;;;;;;;15.66;38.63;100094.93;218052;1261;138864;-71
2023/06/02 17:40:10;;;;;;;2.10;0.60;;;;;;;15.53;38.73;100104.73;218086;1258;138572;-71
2023/06/02 17:45:14;;;;;;;9.60;1.30;;;;;;;15.37;38.73;100112.05;219404;1257;138846;-70
2023/06/02 17:50:20;;;;;;;1.10;0.70;;;;;;;15.22;38.69;100118.17;218953;1258;138873;-70
2023/06/02 17:55:25;;;;;;;9.20;0.70;;;;;;;15.06;38.73;100122.59;218629;1259;138673;-71
2023/06/02 18:00:31;;;;;;;0.90;0.80;;;;;;;14.90;38.53;100125.73;218177;1258;139880;-72
2023/06/02 18:05:37;;;;;;;1.90;0.80;;;;;;;14.75;38.37;100128.20;220117;1258;138822;-71
2023/06/02 18:10:43;;;;;;;1.20;0.80;;;;;;;14.58;38.43;100140.19;220113;1258;139523;-72
2023/06/02 18:15:48;;;;;;;5.80;0.40;;;;;;;14.40;38.41;100151.13;219185;1258;139814;-74
2023/06/02 18:20:53;;;;;;;2.50;0.90;;;;;;;14.24;38.33;100156.52;219904;1258;139034;-67
2023/06/02 18:25:58;;;;;;;2.20;1.00;;;;;;;14.05;38.16;100166.41;219945;1257;140104;-73
2023/06/02 18:31:04;;;;;;;2.40;1.40;;;;;;;13.90;38.60;100172.89;219518;1258;139458;-70
2023/06/02 18:36:12;;;;;;;8.50;1.30;;;;;;;13.75;38.32;100187.73;218793;1258;138771;-75
2023/06/02 18:41:22;;;;;;;1.50;1.40;;;;;;;13.60;38.47;100197.23;218965;1258;139284;-80
2023/06/02 18:46:27;;;;;;;1.90;1.00;;;;;;;13.44;38.98;100206.02;217087;1261;141087;-81
2023/06/02 18:51:32;;;;;;;4.90;1.00;;;;;;;13.28;39.04;100210.78;216882;1261;138638;-76
2023/06/02 18:56:37;;;;;;;9.20;2.30;;;;;;;13.12;39.10;100219.09;218451;1257;139607;-78
2023/06/02 19:01:47;;;;;;;3.70;1.20;;;;;;;12.96;39.51;100230.00;217804;1258;138796;-76
2023/06/02 19:06:53;;;;;;;1.10;1.00;;;;;;;12.78;39.65;100239.18;217538;1261;138713;-72
2023/06/02 19:11:57;;;;;;;2.40;1.80;;;;;;;12.59;39.91;100248.20;217246;1261;138690;-76
2023/06/02 19:17:04;;;;;;;2.00;1.40;;;;;;;12.42;40.23;100256.03;217341;1259;138750;-74
2023/06/02 19:22:08;;;;;;;2.50;1.10;;;;;;;12.28;40.65;100267.02;218255;1262;140514;-74
2023/06/02 19:27:16;;;;;;;0.90;0.90;;;;;;;12.12;41.02;100276.61;218580;1259;244282;-74
2023/06/02 19:32:25;;;;;;;1.50;0.90;;;;;;;11.97;41.40;100287.33;217600;1259;139217;-76
2023/06/02 19:37:32;;;;;;;1.10;0.90;;;;;;;11.82;41.49;100285.39;217703;1259;139679;-81
2023/06/02 19:42:39;;;;;;;1.20;0.70;;;;;;;11.68;41.75;100294.40;218342;1259;139667;-81
2023/06/02 19:47:45;;;;;;;7.20;0.90;;;;;;;11.56;42.01;100300.05;219395;1261;140489;-81
2023/06/02 19:52:52;;;;;;;1.10;1.10;;;;;;;11.43;42.09;100307.37;218105;1259;139207;-72
2023/06/02 19:57:58;;;;;;;2.00;0.70;;;;;;;11.32;42.43;100306.66;219503;1258;139895;-72
2023/06/02 20:03:06;;;;;;;1.10;0.80;;;;;;;11.22;42.76;100311.19;219539;1257;139869;-85
2023/06/02 20:08:12;;;;;;;0.40;0.40;;;;;;;11.12;42.92;100313.30;218883;1259;138934;-73
2023/06/02 20:13:22;;;;;;;2.70;1.90;;;;;;;11.01;43.07;100311.73;217712;1258;138474;-75
2023/06/02 20:18:30;;;;;;;1.10;0.60;;;;;;;10.89;43.34;100311.54;219603;1257;139808;-75
2023/06/02 20:23:37;;;;;;;2.80;0.70;;;;;;;10.79;43.37;100315.50;218589;1261;139311;-81
2023/06/02 20:28:43;;;;;;;2.00;0.70;;;;;;;10.70;43.49;100319.62;220019;1258;140536;-77
2023/06/02 20:33:49;;;;;;;1.10;1.00;;;;;;;10.59;43.94;100320.13;217779;1261;138834;-77
2023/06/02 20:39:04;;;;;;;1.30;1.20;;;;;;;10.46;44.16;100322.27;219498;1258;140031;-73
2023/06/02 20:44:10;;;;;;;1.30;0.60;;;;;;;10.36;44.71;100327.91;217441;1261;138868;-73
2023/06/02 20:49:18;;;;;;;0.90;0.90;;;;;;;10.19;45.14;100334.73;217339;1257;138550;-72
2023/06/02 20:54:25;;;;;;;;;;;;;;;10.00;45.92;100340.73;218756;1258;138667;-73
2023/06/02 20:59:37;;;;;;;0.80;0.80;;;;;;;9.78;46.53;100344.27;218025;1259;125128;-74
2023/06/02 21:04:44;;;;;;;4.20;1.20;;;;;;;9.61;47.43;100351.04;217627;1259;139148;-73
2023/06/02 21:09:49;;;;;;;8.50;1.70;;;;;;;9.45;47.51;100358.54;218180;1260;139338;-72
2023/06/02 21:14:53;;;;;;;8.40;1.00;;;;;;;9.29;48.06;100364.83;217758;1258;138478;-86
2023/06/02 21:19:58;;;;;;;1.50;1.40;;;;;;;9.14;48.30;100377.04;217886;1257;150675;-85
2023/06/02 21:25:06;;;;;;;1.30;1.00;;;;;;;9.00;48.36;100385.91;217747;1261;139458;-86
2023/06/02 21:30:15;;;;;;;5.40;1.50;;;;;;;8.84;48.97;100392.53;218457;1259;138641;-76
2023/06/02 21:35:37;;;;;;;2.20;1.10;;;;;;;8.65;49.25;100399.34;218308;1258;139250;-78
2023/06/02 21:40:42;;;;;;;2.00;1.00;;;;;;;8.45;49.97;100401.48;218923;1261;139229;-76
2023/06/02 21:45:50;;;;;;;1.20;1.00;;;;;;;8.28;50.34;100405.62;219172;1257;140441;-76
2023/06/02 21:50:55;;;;;;;2.90;1.30;;;;;;;8.13;50.72;100414.91;217608;1259;139138;-73
2023/06/02 21:56:02;;;;;;;0.80;0.80;;;;;;;7.98;51.02;100421.70;218647;1259;139904;-76
2023/06/02 22:01:07;;;;;;;1.80;1.30;;;;;;;7.84;51.64;100419.35;218667;1260;138655;-74
2023/06/02 22:06:13;;;;;;;3.50;1.70;;;;;;;7.71;52.11;100424.28;219177;1261;138076;-79
2023/06/02 22:11:22;;;;;;;1.20;1.10;;;;;;;7.60;52.39;100427.52;220021;1261;138323;-80
2023/06/02 22:16:27;;;;;;;2.60;1.60;;;;;;;7.47;52.70;100425.90;220012;1258;139943;-80
2023/06/02 22:21:32;;;;;;;6.90;1.30;;;;;;;7.34;53.19;100428.13;217962;1257;138322;-72
2023/06/02 22:26:59;;;;;;;3.90;3.20;;;;;;;7.22;53.34;100434.11;219519;1258;138057;-79
2023/06/02 22:32:04;;;;;;;3.00;1.00;;;;;;;7.09;53.88;100438.20;218744;1261;138781;-74
2023/06/02 22:37:08;;;;;;;3.50;1.40;;;;;;;6.95;54.06;100439.79;218086;1257;138932;-73
2023/06/02 22:42:13;;;;;;;5.30;1.50;;;;;;;6.77;54.31;100442.34;218916;1261;139099;-76
2023/06/02 22:47:17;;;;;;;2.20;1.50;;;;;;;6.62;54.61;100445.48;218011;1261;139351;-81
2023/06/02 22:52:22;;;;;;;3.40;2.40;;;;;;;6.47;54.74;100453.14;217964;1261;138518;-79
2023/06/02 22:57:30;;;;;;;7.60;3.00;;;;;;;6.33;55.74;100452.00;217848;1261;138679;-79
2023/06/02 23:02:35;;;;;;;7.80;3.80;;;;;;;6.23;55.62;100452.42;218065;1259;138803;-74
2023/06/02 23:07:40;;;;;;;6.90;2.60;;;;;;;6.13;56.52;100450.95;217882;1259;138702;-77
2023/06/02 23:12:45;;;;;;;5.50;2.70;;;;;;;6.02;57.06;100448.64;218245;1261;139139;-80
2023/06/02 23:17:50;;;;;;;4.00;2.80;;;;;;;5.94;57.18;100451.77;218318;1261;138505;-82
2023/06/02 23:22:54;;;;;;;5.10;2.60;;;;;;;5.87;57.56;100457.03;217989;1257;151687;-78
2023/06/02 23:27:59;;;;;;;2.70;2.00;;;;;;;5.80;58.05;100457.03;217344;1258;138589;-79
2023/06/02 23:33:04;;;;;;;1.90;1.60;;;;;;;5.69;58.13;100463.09;217673;1261;139912;-79
2023/06/02 23:38:09;;;;;;;1.20;1.10;;;;;;;5.57;58.54;100464.98;219488;1257;139191;-79
2023/06/02 23:43:15;;;;;;;2.60;1.20;;;;;;;5.45;58.77;100466.89;217058;1261;139663;-79
2023/06/02 23:48:20;;;;;;;2.70;1.10;;;;;;;5.31;58.98;100471.91;218949;1261;139638;-78
2023/06/02 23:53:25;;;;;;;3.40;1.00;;;;;;;5.13;59.14;100478.41;217221;1257;140891;-78
2023/06/02 23:58:31;;;;;;;1.30;1.30;;;;;;;4.99;59.65;100476.05;217576;1257;138456;-79
